createdAt,value
2023-03-24T00:00:05.844Z,92.80
2023-03-24T00:00:20.487Z,92.90
2023-03-24T00:00:32.240Z,92.90
2023-03-24T00:00:44.192Z,92.80
2023-03-24T00:01:02.742Z,92.70
2023-03-24T00:01:14.533Z,92.70
2023-03-24T00:01:26.521Z,93.10
2023-03-24T00:01:38.247Z,92.80
2023-03-24T00:01:50.105Z,92.80
2023-03-24T00:02:01.905Z,92.70
2023-03-24T00:02:13.843Z,92.50
2023-03-24T00:02:28.603Z,92.50
2023-03-24T00:02:42.223Z,92.50
2023-03-24T00:02:54.315Z,92.70
2023-03-24T00:03:06.083Z,92.60
2023-03-24T00:03:18.187Z,92.60
2023-03-24T00:03:30.402Z,92.70
2023-03-24T00:03:45.918Z,92.60
2023-03-24T00:03:59.180Z,92.70
2023-03-24T00:04:11.268Z,92.60
2023-03-24T00:04:25.010Z,92.50
2023-03-24T00:04:37.000Z,92.60
2023-03-24T00:04:50.692Z,92.70
2023-03-24T00:05:03.922Z,92.70
2023-03-24T00:05:17.149Z,92.80
2023-03-24T00:05:30.436Z,92.90
2023-03-24T00:05:42.159Z,92.70
2023-03-24T00:05:58.522Z,92.70
2023-03-24T00:06:13.834Z,92.80
2023-03-24T00:06:26.576Z,92.70
2023-03-24T00:06:38.638Z,92.70
2023-03-24T00:06:50.707Z,92.70
2023-03-24T00:07:03.212Z,92.70
2023-03-24T00:07:16.026Z,92.40
2023-03-24T00:07:30.581Z,92.50
2023-03-24T00:07:42.524Z,92.40
2023-03-24T00:07:55.400Z,92.40
2023-03-24T00:08:07.188Z,92.60
2023-03-24T00:08:18.874Z,92.70
2023-03-24T00:08:35.916Z,92.70
2023-03-24T00:08:48.432Z,92.70
2023-03-24T00:09:00.892Z,92.70
2023-03-24T00:09:12.619Z,92.50
2023-03-24T00:09:24.359Z,92.70
2023-03-24T00:09:36.681Z,92.90
2023-03-24T00:09:48.374Z,93.00
2023-03-24T00:10:00.222Z,93.10
2023-03-24T00:10:15.061Z,93.30
2023-03-24T00:10:30.442Z,93.50
2023-03-24T00:10:42.672Z,93.50
2023-03-24T00:10:54.518Z,93.70
2023-03-24T00:11:11.667Z,93.50
2023-03-24T00:11:25.442Z,93.60
2023-03-24T00:11:38.351Z,93.70
2023-03-24T00:11:50.072Z,93.90
2023-03-24T00:12:01.863Z,93.90
2023-03-24T00:12:14.023Z,93.90
2023-03-24T00:12:25.827Z,94.20
2023-03-24T00:12:38.441Z,93.50
2023-03-24T00:12:50.525Z,93.50
2023-03-24T00:13:02.510Z,93.50
2023-03-24T00:13:14.445Z,93.60
2023-03-24T00:13:26.122Z,93.80
2023-03-24T00:13:38.412Z,93.50
2023-03-24T00:13:50.836Z,93.40
2023-03-24T00:14:03.323Z,93.50
2023-03-24T00:14:15.212Z,93.50
2023-03-24T00:14:30.555Z,93.30
2023-03-24T00:14:42.374Z,93.40
2023-03-24T00:14:54.564Z,93.40
2023-03-24T00:15:08.331Z,93.40
2023-03-24T00:15:21.566Z,93.30
2023-03-24T00:15:34.401Z,93.30
2023-03-24T00:15:48.736Z,93.30
2023-03-24T00:16:00.621Z,93.20
2023-03-24T00:16:13.791Z,93.20
2023-03-24T00:16:26.481Z,93.20
2023-03-24T00:16:45.309Z,93.30
2023-03-24T00:16:59.686Z,93.20
2023-03-24T00:17:13.770Z,93.10
2023-03-24T00:17:29.201Z,93.00
2023-03-24T00:17:41.223Z,93.10
2023-03-24T00:17:53.173Z,93.00
2023-03-24T00:18:05.151Z,93.00
2023-03-24T00:18:16.889Z,93.10
2023-03-24T00:18:30.361Z,93.20
2023-03-24T00:18:42.144Z,93.10
2023-03-24T00:18:54.476Z,93.10
2023-03-24T00:19:06.366Z,93.20
2023-03-24T00:19:18.205Z,93.20
2023-03-24T00:19:29.963Z,93.00
2023-03-24T00:19:41.743Z,93.10
2023-03-24T00:19:56.029Z,93.10
2023-03-24T00:20:14.851Z,93.00
2023-03-24T00:20:26.847Z,92.90
2023-03-24T00:20:38.677Z,92.80
2023-03-24T00:20:51.640Z,92.80
2023-03-24T00:21:04.424Z,92.70
2023-03-24T00:21:16.166Z,92.70
2023-03-24T00:21:28.212Z,92.60
2023-03-24T00:21:40.038Z,92.50
2023-03-24T00:21:55.876Z,92.50
2023-03-24T00:22:08.034Z,92.60
2023-03-24T00:22:21.229Z,92.80
2023-03-24T00:22:33.804Z,92.50
2023-03-24T00:22:50.966Z,92.60
2023-03-24T00:23:04.006Z,92.50
2023-03-24T00:23:15.752Z,92.60
2023-03-24T00:23:34.054Z,92.50
2023-03-24T00:23:47.648Z,92.60
2023-03-24T00:24:01.243Z,92.70
2023-03-24T00:24:13.019Z,92.60
2023-03-24T00:24:25.547Z,92.60
2023-03-24T00:24:38.075Z,92.70
2023-03-24T00:24:49.845Z,92.70
2023-03-24T00:25:04.213Z,92.70
2023-03-24T00:25:19.523Z,92.60
2023-03-24T00:25:36.399Z,92.60
2023-03-24T00:25:49.633Z,92.50
2023-03-24T00:26:15.378Z,92.60
2023-03-24T00:26:28.291Z,92.70
2023-03-24T00:26:40.805Z,92.60
2023-03-24T00:26:52.624Z,92.60
2023-03-24T00:27:04.315Z,92.70
2023-03-24T00:27:17.671Z,92.70
2023-03-24T00:27:30.290Z,92.80
2023-03-24T00:27:44.890Z,92.70
2023-03-24T00:27:57.476Z,92.90
2023-03-24T00:28:11.201Z,92.80
2023-03-24T00:28:22.974Z,92.80
2023-03-24T00:28:36.842Z,92.90
2023-03-24T00:28:49.109Z,92.80
2023-03-24T00:29:02.081Z,92.70
2023-03-24T00:29:13.923Z,92.70
2023-03-24T00:29:25.678Z,92.70
2023-03-24T00:29:38.200Z,92.70
2023-03-24T00:29:49.982Z,92.60
2023-03-24T00:30:03.423Z,92.60
2023-03-24T00:30:15.902Z,92.60
2023-03-24T00:30:27.607Z,92.60
2023-03-24T00:30:41.429Z,92.60
2023-03-24T00:30:53.307Z,92.60
2023-03-24T00:31:06.101Z,92.60
2023-03-24T00:31:18.058Z,92.60
2023-03-24T00:31:30.906Z,92.60
2023-03-24T00:31:43.302Z,92.70
2023-03-24T00:31:55.434Z,92.70
2023-03-24T00:32:08.092Z,92.70
2023-03-24T00:32:19.802Z,92.70
2023-03-24T00:32:31.569Z,92.60
2023-03-24T00:32:43.498Z,92.60
2023-03-24T00:32:55.324Z,92.60
2023-03-24T00:33:07.063Z,92.70
2023-03-24T00:33:18.842Z,92.90
2023-03-24T00:33:35.154Z,92.70
2023-03-24T00:33:51.252Z,92.70
2023-03-24T00:34:03.173Z,92.80
2023-03-24T00:34:15.115Z,92.70
2023-03-24T00:34:27.133Z,92.70
2023-03-24T00:34:41.085Z,92.80
2023-03-24T00:34:54.227Z,92.70
2023-03-24T00:35:08.733Z,92.70
2023-03-24T00:35:20.634Z,92.70
2023-03-24T00:35:32.562Z,92.70
2023-03-24T00:35:44.956Z,92.70
2023-03-24T00:35:57.808Z,92.70
2023-03-24T00:36:13.556Z,92.80
2023-03-24T00:36:26.436Z,92.70
2023-03-24T00:36:38.237Z,92.60
2023-03-24T00:36:50.982Z,92.70
2023-03-24T00:37:02.718Z,92.50
2023-03-24T00:37:14.407Z,92.40
2023-03-24T00:37:26.476Z,92.40
2023-03-24T00:37:39.306Z,92.40
2023-03-24T00:37:52.250Z,92.50
2023-03-24T00:38:04.039Z,92.50
2023-03-24T00:38:15.743Z,92.60
2023-03-24T00:38:27.607Z,92.60
2023-03-24T00:38:40.264Z,92.60
2023-03-24T00:38:52.590Z,92.60
2023-03-24T00:39:04.960Z,92.60
2023-03-24T00:39:17.838Z,92.50
2023-03-24T00:39:29.589Z,92.50
2023-03-24T00:39:42.467Z,92.50
2023-03-24T00:39:54.363Z,92.40
2023-03-24T00:40:09.642Z,92.30
2023-03-24T00:40:21.972Z,92.40
2023-03-24T00:40:33.704Z,92.50
2023-03-24T00:40:48.728Z,92.50
2023-03-24T00:41:01.307Z,92.50
2023-03-24T00:41:13.172Z,92.50
2023-03-24T00:41:27.203Z,92.60
2023-03-24T00:41:39.141Z,92.70
2023-03-24T00:41:50.941Z,92.70
2023-03-24T00:42:03.377Z,92.60
2023-03-24T00:42:15.125Z,92.50
2023-03-24T00:42:26.903Z,92.60
2023-03-24T00:42:39.788Z,92.60
2023-03-24T00:42:51.968Z,92.60
2023-03-24T00:43:03.775Z,92.70
2023-03-24T00:43:15.587Z,92.70
2023-03-24T00:43:28.921Z,92.60
2023-03-24T00:43:41.175Z,92.60
2023-03-24T00:43:55.786Z,92.70
2023-03-24T00:44:08.836Z,92.70
2023-03-24T00:44:20.552Z,92.60
2023-03-24T00:44:32.472Z,92.50
2023-03-24T00:44:44.874Z,92.60
2023-03-24T00:44:56.668Z,92.50
2023-03-24T00:45:09.469Z,92.40
2023-03-24T00:45:23.233Z,92.50
2023-03-24T00:45:35.446Z,92.60
2023-03-24T00:45:47.279Z,92.50
2023-03-24T00:46:04.000Z,92.50
2023-03-24T00:46:28.290Z,92.50
2023-03-24T00:46:45.997Z,92.90
2023-03-24T00:46:57.870Z,92.60
2023-03-24T00:47:11.064Z,92.60
2023-03-24T00:47:26.082Z,92.50
2023-03-24T00:47:38.105Z,92.40
2023-03-24T00:47:53.900Z,92.50
2023-03-24T00:48:06.321Z,92.40
2023-03-24T00:48:20.063Z,92.50
2023-03-24T00:48:31.919Z,92.50
2023-03-24T00:48:43.721Z,92.60
2023-03-24T00:49:02.606Z,92.50
2023-03-24T00:49:15.633Z,92.30
2023-03-24T00:49:44.869Z,92.50
2023-03-24T00:49:57.922Z,92.60
2023-03-24T00:50:15.690Z,92.40
2023-03-24T00:50:27.747Z,92.40
2023-03-24T00:50:39.681Z,92.50
2023-03-24T00:50:51.876Z,92.50
2023-03-24T00:51:05.076Z,92.50
2023-03-24T00:51:16.760Z,92.50
2023-03-24T00:51:33.696Z,92.50
2023-03-24T00:51:45.766Z,92.40
2023-03-24T00:51:58.321Z,92.50
2023-03-24T00:52:20.772Z,92.50
2023-03-24T00:52:34.052Z,92.40
2023-03-24T00:52:48.183Z,92.50
2023-03-24T00:53:02.111Z,92.30
2023-03-24T00:53:15.891Z,92.30
2023-03-24T00:53:29.135Z,92.20
2023-03-24T00:53:43.656Z,92.20
2023-03-24T00:53:58.158Z,92.10
2023-03-24T00:54:12.736Z,92.10
2023-03-24T00:54:27.789Z,92.10
2023-03-24T00:54:40.081Z,92.20
2023-03-24T00:54:55.296Z,92.10
2023-03-24T00:55:09.031Z,92.10
2023-03-24T00:55:21.507Z,92.30
2023-03-24T00:55:33.988Z,92.20
2023-03-24T00:55:47.962Z,92.20
2023-03-24T00:56:00.027Z,92.10
2023-03-24T00:56:11.757Z,92.20
2023-03-24T00:56:27.238Z,92.10
2023-03-24T00:56:40.509Z,92.20
2023-03-24T00:56:55.758Z,92.60
2023-03-24T00:57:08.246Z,92.40
2023-03-24T00:57:21.687Z,92.30
2023-03-24T00:57:36.212Z,92.20
2023-03-24T00:57:49.978Z,92.20
2023-03-24T00:58:02.639Z,92.20
2023-03-24T00:58:19.470Z,92.00
2023-03-24T00:58:34.396Z,92.00
2023-03-24T00:58:46.172Z,92.00
2023-03-24T00:58:58.142Z,92.00
2023-03-24T00:59:10.848Z,92.00
2023-03-24T00:59:23.513Z,91.90
2023-03-24T00:59:42.494Z,91.90
2023-03-24T00:59:54.609Z,92.00
2023-03-24T01:00:19.907Z,91.80
2023-03-24T01:00:32.595Z,91.90
2023-03-24T01:00:48.635Z,92.20
2023-03-24T01:01:00.635Z,92.00
2023-03-24T01:01:12.407Z,91.80
2023-03-24T01:01:27.484Z,92.00
2023-03-24T01:01:39.687Z,91.80
2023-03-24T01:01:51.637Z,91.90
2023-03-24T01:02:04.035Z,91.80
2023-03-24T01:02:22.796Z,91.90
2023-03-24T01:02:34.670Z,92.00
2023-03-24T01:02:47.902Z,91.90
2023-03-24T01:02:59.654Z,92.00
2023-03-24T01:03:11.555Z,92.00
2023-03-24T01:03:27.230Z,92.00
2023-03-24T01:03:48.151Z,92.00
2023-03-24T01:04:00.245Z,91.90
2023-03-24T01:04:11.974Z,92.00
2023-03-24T01:04:26.347Z,92.00
2023-03-24T01:04:39.746Z,92.10
2023-03-24T01:04:56.367Z,92.00
2023-03-24T01:05:09.428Z,92.10
2023-03-24T01:05:22.362Z,92.00
2023-03-24T01:05:36.455Z,92.10
2023-03-24T01:05:48.548Z,92.00
2023-03-24T01:06:02.384Z,92.10
2023-03-24T01:06:15.012Z,92.00
2023-03-24T01:06:26.795Z,92.10
2023-03-24T01:06:38.687Z,92.00
2023-03-24T01:06:52.305Z,91.90
2023-03-24T01:07:04.118Z,91.90
2023-03-24T01:07:18.245Z,92.00
2023-03-24T01:07:30.272Z,91.80
2023-03-24T01:07:42.415Z,91.90
2023-03-24T01:07:56.745Z,91.80
2023-03-24T01:08:08.870Z,91.90
2023-03-24T01:08:20.604Z,92.00
2023-03-24T01:08:32.385Z,91.90
2023-03-24T01:08:45.270Z,91.90
2023-03-24T01:08:57.074Z,91.90
2023-03-24T01:09:08.862Z,92.00
2023-03-24T01:09:23.388Z,91.90
2023-03-24T01:09:36.390Z,92.00
2023-03-24T01:09:57.143Z,91.90
2023-03-24T01:10:13.132Z,91.90
2023-03-24T01:10:26.715Z,91.90
2023-03-24T01:10:53.092Z,91.90
2023-03-24T01:11:05.532Z,91.80
2023-03-24T01:11:17.937Z,91.90
2023-03-24T01:11:29.882Z,91.70
2023-03-24T01:11:41.881Z,91.80
2023-03-24T01:11:53.583Z,91.80
2023-03-24T01:12:05.491Z,91.90
2023-03-24T01:12:19.132Z,92.00
2023-03-24T01:12:36.817Z,91.90
2023-03-24T01:12:49.000Z,91.90
2023-03-24T01:13:01.286Z,91.80
2023-03-24T01:13:13.050Z,91.80
2023-03-24T01:13:27.064Z,91.80
2023-03-24T01:13:39.720Z,92.00
2023-03-24T01:13:52.232Z,91.90
2023-03-24T01:14:04.997Z,91.90
2023-03-24T01:14:16.806Z,92.00
2023-03-24T01:14:28.597Z,92.10
2023-03-24T01:14:40.701Z,92.00
2023-03-24T01:14:52.919Z,92.00
2023-03-24T01:15:08.195Z,92.10
2023-03-24T01:15:20.531Z,92.00
2023-03-24T01:15:36.596Z,91.80
2023-03-24T01:15:48.648Z,91.90
2023-03-24T01:16:00.506Z,92.00
2023-03-24T01:16:12.422Z,91.90
2023-03-24T01:16:26.017Z,91.90
2023-03-24T01:16:38.060Z,92.00
2023-03-24T01:16:49.888Z,91.90
2023-03-24T01:17:01.554Z,91.80
2023-03-24T01:17:13.294Z,91.80
2023-03-24T01:17:29.668Z,91.80
2023-03-24T01:17:41.666Z,91.70
2023-03-24T01:17:54.524Z,91.70
2023-03-24T01:18:06.505Z,91.70
2023-03-24T01:18:18.487Z,91.60
2023-03-24T01:18:30.416Z,91.70
2023-03-24T01:18:42.355Z,91.60
2023-03-24T01:18:54.195Z,91.50
2023-03-24T01:19:07.163Z,91.60
2023-03-24T01:19:22.006Z,91.60
2023-03-24T01:19:33.851Z,91.60
2023-03-24T01:19:45.850Z,91.60
2023-03-24T01:19:57.723Z,91.60
2023-03-24T01:20:11.805Z,91.80
2023-03-24T01:20:23.775Z,91.70
2023-03-24T01:20:35.802Z,91.80
2023-03-24T01:20:49.318Z,91.50
2023-03-24T01:21:01.549Z,91.60
2023-03-24T01:21:13.238Z,91.60
2023-03-24T01:21:25.472Z,91.50
2023-03-24T01:21:37.982Z,91.60
2023-03-24T01:21:51.001Z,91.70
2023-03-24T01:22:02.770Z,91.80
2023-03-24T01:22:14.850Z,91.80
2023-03-24T01:22:30.092Z,91.70
2023-03-24T01:22:45.078Z,91.60
2023-03-24T01:22:57.027Z,91.70
2023-03-24T01:23:08.915Z,91.80
2023-03-24T01:23:22.737Z,91.80
2023-03-24T01:23:34.616Z,91.80
2023-03-24T01:23:46.517Z,91.90
2023-03-24T01:23:58.265Z,91.90
2023-03-24T01:24:10.043Z,91.80
2023-03-24T01:24:21.916Z,91.80
2023-03-24T01:24:33.688Z,91.80
2023-03-24T01:24:45.466Z,91.70
2023-03-24T01:24:57.236Z,91.70
2023-03-24T01:25:10.962Z,91.80
2023-03-24T01:25:23.248Z,91.80
2023-03-24T01:25:39.952Z,91.70
2023-03-24T01:25:52.107Z,91.80
2023-03-24T01:26:08.531Z,91.80
2023-03-24T01:26:20.580Z,91.80
2023-03-24T01:26:32.378Z,91.70
2023-03-24T01:26:44.388Z,91.70
2023-03-24T01:26:56.247Z,91.80
2023-03-24T01:27:07.986Z,91.80
2023-03-24T01:27:19.761Z,92.00
2023-03-24T01:27:31.730Z,92.00
2023-03-24T01:27:47.049Z,91.80
2023-03-24T01:27:58.939Z,91.70
2023-03-24T01:28:12.528Z,91.80
2023-03-24T01:28:25.350Z,91.80
2023-03-24T01:28:41.254Z,91.80
2023-03-24T01:28:53.057Z,91.70
2023-03-24T01:29:04.983Z,91.70
2023-03-24T01:29:16.887Z,91.80
2023-03-24T01:29:28.538Z,91.80
2023-03-24T01:29:43.341Z,91.80
2023-03-24T01:29:59.433Z,91.80
2023-03-24T01:30:15.584Z,91.90
2023-03-24T01:30:28.410Z,91.90
2023-03-24T01:30:40.160Z,91.90
2023-03-24T01:30:52.643Z,92.00
2023-03-24T01:31:04.605Z,92.10
2023-03-24T01:31:16.642Z,92.10
2023-03-24T01:31:28.398Z,92.10
2023-03-24T01:31:40.435Z,92.10
2023-03-24T01:31:52.238Z,92.10
2023-03-24T01:32:04.037Z,92.10
2023-03-24T01:32:15.759Z,92.10
2023-03-24T01:32:29.022Z,92.00
2023-03-24T01:32:41.540Z,92.10
2023-03-24T01:32:53.564Z,92.00
2023-03-24T01:33:05.400Z,92.00
2023-03-24T01:33:17.428Z,91.90
2023-03-24T01:33:29.192Z,91.90
2023-03-24T01:33:41.248Z,91.90
2023-03-24T01:33:52.969Z,91.90
2023-03-24T01:34:04.862Z,92.00
2023-03-24T01:34:16.655Z,92.10
2023-03-24T01:34:28.421Z,92.10
2023-03-24T01:34:40.220Z,92.00
2023-03-24T01:34:51.888Z,92.00
2023-03-24T01:35:03.834Z,92.10
2023-03-24T01:35:15.707Z,92.10
2023-03-24T01:35:29.340Z,92.10
2023-03-24T01:35:41.557Z,92.00
2023-03-24T01:35:53.357Z,92.10
2023-03-24T01:36:06.458Z,92.30
2023-03-24T01:36:18.265Z,92.30
2023-03-24T01:36:30.366Z,92.20
2023-03-24T01:36:42.178Z,92.20
2023-03-24T01:36:53.924Z,92.20
2023-03-24T01:37:05.839Z,92.30
2023-03-24T01:37:17.583Z,92.20
2023-03-24T01:37:29.340Z,92.30
2023-03-24T01:37:41.179Z,92.30
2023-03-24T01:37:52.975Z,92.30
2023-03-24T01:38:08.259Z,92.30
2023-03-24T01:38:20.146Z,92.30
2023-03-24T01:38:32.227Z,92.20
2023-03-24T01:38:44.002Z,92.00
2023-03-24T01:38:58.380Z,92.10
2023-03-24T01:39:10.256Z,92.00
2023-03-24T01:39:22.516Z,92.10
2023-03-24T01:39:34.222Z,92.10
2023-03-24T01:39:46.299Z,92.10
2023-03-24T01:39:57.993Z,92.20
2023-03-24T01:40:14.587Z,92.20
2023-03-24T01:40:31.985Z,92.00
2023-03-24T01:40:45.744Z,92.10
2023-03-24T01:40:57.715Z,92.30
2023-03-24T01:41:09.540Z,92.20
2023-03-24T01:41:21.390Z,92.20
2023-03-24T01:41:36.495Z,92.20
2023-03-24T01:41:48.346Z,92.00
2023-03-24T01:42:00.032Z,92.00
2023-03-24T01:42:18.196Z,92.00
2023-03-24T01:42:29.883Z,92.00
2023-03-24T01:42:41.633Z,92.10
2023-03-24T01:42:53.441Z,92.10
2023-03-24T01:43:06.234Z,92.10
2023-03-24T01:43:27.361Z,92.10
2023-03-24T01:43:39.114Z,92.10
2023-03-24T01:43:51.208Z,92.10
2023-03-24T01:44:24.677Z,92.10
2023-03-24T01:44:37.653Z,92.10
2023-03-24T01:44:50.375Z,92.20
2023-03-24T01:45:22.931Z,92.30
2023-03-24T01:45:45.268Z,92.30
2023-03-24T01:46:08.101Z,92.30
2023-03-24T01:46:21.325Z,92.30
2023-03-24T01:46:34.348Z,92.40
2023-03-24T01:46:46.226Z,92.30
2023-03-24T01:46:58.482Z,92.30
2023-03-24T01:47:10.563Z,92.60
2023-03-24T01:47:22.410Z,92.40
2023-03-24T01:47:35.267Z,92.40
2023-03-24T01:47:47.135Z,92.40
2023-03-24T01:47:58.878Z,92.40
2023-03-24T01:48:22.590Z,92.40
2023-03-24T01:48:49.205Z,92.50
2023-03-24T01:49:06.578Z,92.50
2023-03-24T01:49:18.439Z,92.50
2023-03-24T01:49:37.538Z,92.50
2023-03-24T01:49:57.946Z,92.50
2023-03-24T01:50:09.928Z,92.40
2023-03-24T01:50:21.937Z,92.40
2023-03-24T01:50:33.697Z,92.30
2023-03-24T01:50:48.606Z,92.30
2023-03-24T01:51:11.073Z,92.30
2023-03-24T01:51:24.610Z,92.40
2023-03-24T01:51:42.121Z,92.40
2023-03-24T01:51:56.472Z,92.30
2023-03-24T01:52:21.730Z,92.30
2023-03-24T01:52:35.437Z,92.40
2023-03-24T01:52:47.108Z,92.50
2023-03-24T01:52:59.294Z,92.50
2023-03-24T01:53:14.097Z,92.50
2023-03-24T01:53:26.028Z,92.50
2023-03-24T01:53:39.471Z,92.30
2023-03-24T01:54:00.020Z,92.20
2023-03-24T01:54:13.396Z,92.20
2023-03-24T01:54:36.401Z,92.30
2023-03-24T01:54:51.166Z,92.30
2023-03-24T01:55:09.217Z,92.30
2023-03-24T01:55:21.212Z,92.30
2023-03-24T01:55:33.130Z,92.30
2023-03-24T01:55:46.034Z,92.30
2023-03-24T01:55:57.832Z,92.40
2023-03-24T01:56:09.728Z,92.30
2023-03-24T01:56:21.926Z,92.30
2023-03-24T01:56:35.636Z,92.30
2023-03-24T01:56:50.392Z,92.40
2023-03-24T01:57:30.169Z,92.20
2023-03-24T01:57:43.654Z,92.30
2023-03-24T01:57:57.857Z,92.30
2023-03-24T01:58:09.654Z,92.30
2023-03-24T01:58:21.453Z,92.40
2023-03-24T01:58:33.235Z,92.40
2023-03-24T01:58:48.511Z,92.40
2023-03-24T01:59:02.996Z,92.40
2023-03-24T01:59:17.846Z,92.20
2023-03-24T01:59:30.698Z,92.30
2023-03-24T01:59:44.372Z,92.50
2023-03-24T01:59:57.720Z,92.30
2023-03-24T02:00:12.586Z,92.30
2023-03-24T02:00:25.150Z,92.40
2023-03-24T02:00:38.125Z,92.40
2023-03-24T02:00:50.040Z,92.40
2023-03-24T02:01:01.889Z,92.50
2023-03-24T02:01:13.676Z,92.50
2023-03-24T02:01:29.838Z,92.50
2023-03-24T02:01:42.029Z,92.50
2023-03-24T02:02:02.854Z,92.60
2023-03-24T02:02:15.039Z,92.60
2023-03-24T02:02:27.003Z,92.60
2023-03-24T02:02:39.306Z,92.50
2023-03-24T02:02:58.738Z,92.50
2023-03-24T02:03:15.227Z,92.40
2023-03-24T02:03:26.988Z,92.50
2023-03-24T02:03:40.497Z,92.40
2023-03-24T02:03:52.994Z,92.40
2023-03-24T02:04:06.232Z,92.40
2023-03-24T02:04:18.195Z,92.40
2023-03-24T02:04:31.843Z,92.30
2023-03-24T02:04:45.647Z,92.40
2023-03-24T02:05:03.112Z,92.40
2023-03-24T02:05:14.940Z,92.40
2023-03-24T02:05:29.656Z,92.50
2023-03-24T02:05:41.707Z,92.50
2023-03-24T02:05:54.215Z,92.40
2023-03-24T02:06:06.205Z,92.40
2023-03-24T02:06:18.492Z,92.50
2023-03-24T02:06:31.476Z,92.60
2023-03-24T02:06:44.215Z,92.50
2023-03-24T02:06:56.473Z,92.40
2023-03-24T02:07:34.199Z,92.40
2023-03-24T02:07:54.545Z,92.40
2023-03-24T02:08:17.379Z,92.40
2023-03-24T02:08:38.207Z,92.40
2023-03-24T02:08:55.264Z,92.40
2023-03-24T02:09:07.368Z,92.50
2023-03-24T02:09:19.038Z,92.60
2023-03-24T02:09:30.851Z,92.50
2023-03-24T02:09:42.899Z,92.50
2023-03-24T02:09:54.602Z,92.60
2023-03-24T02:10:09.780Z,92.50
2023-03-24T02:10:22.631Z,92.70
2023-03-24T02:10:35.068Z,92.70
2023-03-24T02:10:47.083Z,92.80
2023-03-24T02:10:59.468Z,92.80
2023-03-24T02:11:11.440Z,92.70
2023-03-24T02:11:24.138Z,92.70
2023-03-24T02:11:36.503Z,92.80
2023-03-24T02:11:48.244Z,92.80
2023-03-24T02:12:00.758Z,92.70
2023-03-24T02:12:13.762Z,92.80
2023-03-24T02:12:25.579Z,92.80
2023-03-24T02:12:37.531Z,92.70
2023-03-24T02:12:49.301Z,92.60
2023-03-24T02:13:01.478Z,92.60
2023-03-24T02:13:13.334Z,92.60
2023-03-24T02:13:25.048Z,92.70
2023-03-24T02:13:36.806Z,92.70
2023-03-24T02:13:48.617Z,92.70
2023-03-24T02:14:00.411Z,92.80
2023-03-24T02:14:12.137Z,92.70
2023-03-24T02:14:23.876Z,92.80
2023-03-24T02:14:35.603Z,92.90
2023-03-24T02:14:47.456Z,92.90
2023-03-24T02:14:59.473Z,92.90
2023-03-24T02:15:12.583Z,92.90
2023-03-24T02:15:24.322Z,92.90
2023-03-24T02:16:07.320Z,92.90
2023-03-24T02:16:49.431Z,92.80
2023-03-24T02:17:21.665Z,93.00
2023-03-24T02:17:49.664Z,93.10
2023-03-24T02:18:25.906Z,93.10
2023-03-24T02:18:44.864Z,93.10
2023-03-24T02:19:26.450Z,93.20
2023-03-24T02:20:09.450Z,93.10
2023-03-24T02:20:30.451Z,93.20
2023-03-24T02:20:54.061Z,93.30
2023-03-24T02:21:05.961Z,93.20
2023-03-24T02:21:52.336Z,93.20
2023-03-24T02:22:41.734Z,93.20
2023-03-24T02:23:10.148Z,93.30
2023-03-24T02:23:30.584Z,93.40
2023-03-24T02:24:07.486Z,93.40
2023-03-24T02:24:32.029Z,93.50
2023-03-24T02:25:10.933Z,93.60
2023-03-24T02:25:46.984Z,93.60
2023-03-24T02:26:19.592Z,93.60
2023-03-24T02:26:48.301Z,93.60
2023-03-24T02:27:35.065Z,93.70
2023-03-24T02:28:16.312Z,93.70
2023-03-24T02:28:46.738Z,93.80
2023-03-24T02:29:41.693Z,93.80
2023-03-24T02:30:11.233Z,93.70
2023-03-24T02:30:53.520Z,93.80
2023-03-24T02:31:14.551Z,94.00
2023-03-24T02:31:45.394Z,94.00
2023-03-24T02:32:34.666Z,94.00
2023-03-24T02:32:46.429Z,94.30
2023-03-24T02:33:23.004Z,94.20
2023-03-24T02:33:58.912Z,94.20
2023-03-24T02:34:25.892Z,94.30
2023-03-24T02:35:13.995Z,94.40
2023-03-24T02:35:43.593Z,94.30
2023-03-24T02:36:10.984Z,94.50
2023-03-24T02:36:54.702Z,94.40
2023-03-24T02:37:32.634Z,94.40
2023-03-24T02:38:03.948Z,94.50
2023-03-24T02:38:24.406Z,94.50
2023-03-24T02:39:09.609Z,94.50
2023-03-24T02:39:48.012Z,94.50
2023-03-24T02:40:27.593Z,94.70
2023-03-24T02:41:03.388Z,94.80
2023-03-24T02:41:23.426Z,94.80
2023-03-24T02:41:46.847Z,95.20
2023-03-24T02:42:12.053Z,95.20
2023-03-24T02:42:43.851Z,95.20
2023-03-24T02:43:20.127Z,95.30
2023-03-24T02:43:49.915Z,95.40
2023-03-24T02:44:14.194Z,95.60
2023-03-24T02:44:41.664Z,95.70
2023-03-24T02:45:17.878Z,95.70
2023-03-24T02:45:40.451Z,95.80
2023-03-24T02:45:54.814Z,95.90
2023-03-24T02:46:34.457Z,96.00
2023-03-24T02:47:00.857Z,96.00
2023-03-24T02:47:42.075Z,96.40
2023-03-24T02:48:20.976Z,96.50
2023-03-24T02:48:46.758Z,96.60
2023-03-24T02:49:17.128Z,96.60
2023-03-24T02:49:38.250Z,96.60
2023-03-24T02:50:04.875Z,96.50
2023-03-24T02:50:31.288Z,96.60
2023-03-24T02:51:03.965Z,96.80
2023-03-24T02:51:25.756Z,96.90
2023-03-24T02:52:02.642Z,96.90
2023-03-24T02:52:18.720Z,96.80
2023-03-24T02:52:40.124Z,97.10
2023-03-24T02:53:01.612Z,97.10
2023-03-24T02:53:39.103Z,97.20
2023-03-24T02:54:11.283Z,97.30
2023-03-24T02:54:33.101Z,97.50
2023-03-24T02:54:50.391Z,97.50
2023-03-24T02:55:12.844Z,97.50
2023-03-24T02:55:57.872Z,97.60
2023-03-24T02:56:30.835Z,97.70
2023-03-24T02:57:18.020Z,97.90
2023-03-24T02:57:34.665Z,97.90
2023-03-24T02:57:52.963Z,98.10
2023-03-24T02:58:09.528Z,98.20
2023-03-24T02:58:37.073Z,98.00
2023-03-24T02:58:52.093Z,98.20
2023-03-24T02:59:05.331Z,98.30
2023-03-24T02:59:39.839Z,98.30
2023-03-24T03:00:00.093Z,98.30
2023-03-24T03:00:21.388Z,98.40
2023-03-24T03:00:36.962Z,98.50
2023-03-24T03:00:52.936Z,98.50
2023-03-24T03:01:14.110Z,98.50
2023-03-24T03:01:31.256Z,98.50
2023-03-24T03:02:13.695Z,98.90
2023-03-24T03:02:28.304Z,98.70
2023-03-24T03:02:44.250Z,98.80
2023-03-24T03:02:59.413Z,98.80
2023-03-24T03:03:23.954Z,98.70
2023-03-24T03:03:44.653Z,98.70
2023-03-24T03:03:57.583Z,98.80
2023-03-24T03:04:12.316Z,98.80
2023-03-24T03:04:38.211Z,98.90
2023-03-24T03:04:52.880Z,98.90
2023-03-24T03:05:15.464Z,98.90
2023-03-24T03:05:31.582Z,98.90
2023-03-24T03:05:50.019Z,99.00
2023-03-24T03:06:08.162Z,98.90
2023-03-24T03:06:22.759Z,98.90
2023-03-24T03:06:37.033Z,98.90
2023-03-24T03:06:52.483Z,98.90
2023-03-24T03:07:12.932Z,98.90
2023-03-24T03:07:26.588Z,98.80
2023-03-24T03:07:38.478Z,98.90
2023-03-24T03:07:50.800Z,98.80
2023-03-24T03:08:04.141Z,98.80
2023-03-24T03:08:17.475Z,98.80
2023-03-24T03:08:30.419Z,98.90
2023-03-24T03:08:42.155Z,98.80
2023-03-24T03:08:54.110Z,98.80
2023-03-24T03:09:11.256Z,98.70
2023-03-24T03:09:23.151Z,98.70
2023-03-24T03:09:35.262Z,98.70
2023-03-24T03:09:56.052Z,98.70
2023-03-24T03:10:24.700Z,98.70
2023-03-24T03:10:38.206Z,98.70
2023-03-24T03:10:50.756Z,98.70
2023-03-24T03:11:04.029Z,98.60
2023-03-24T03:11:16.528Z,98.60
2023-03-24T03:11:28.425Z,98.60
2023-03-24T03:11:41.623Z,98.50
2023-03-24T03:11:54.358Z,98.50
2023-03-24T03:12:06.035Z,98.50
2023-03-24T03:12:18.203Z,98.50
2023-03-24T03:12:31.766Z,98.50
2023-03-24T03:12:45.113Z,98.40
2023-03-24T03:12:59.074Z,98.50
2023-03-24T03:13:16.792Z,98.40
2023-03-24T03:13:42.060Z,98.40
2023-03-24T03:13:59.584Z,98.30
2023-03-24T03:14:34.465Z,98.30
2023-03-24T03:14:49.030Z,98.40
2023-03-24T03:15:06.988Z,98.40
2023-03-24T03:15:21.206Z,98.30
2023-03-24T03:15:36.117Z,98.30
2023-03-24T03:15:49.971Z,98.30
2023-03-24T03:16:05.958Z,98.20
2023-03-24T03:16:25.647Z,98.10
2023-03-24T03:16:43.343Z,98.00
2023-03-24T03:17:00.053Z,97.90
2023-03-24T03:17:15.811Z,97.90
2023-03-24T03:17:33.447Z,97.90
2023-03-24T03:17:59.192Z,97.90
2023-03-24T03:18:19.524Z,97.70
2023-03-24T03:18:40.355Z,97.50
2023-03-24T03:18:55.580Z,97.40
2023-03-24T03:19:18.136Z,97.30
2023-03-24T03:19:34.909Z,97.60
2023-03-24T03:19:52.692Z,97.20
2023-03-24T03:20:11.319Z,97.10
2023-03-24T03:20:24.364Z,97.00
2023-03-24T03:20:39.464Z,96.90
2023-03-24T03:20:53.248Z,97.00
2023-03-24T03:21:08.274Z,96.90
2023-03-24T03:21:22.134Z,97.00
2023-03-24T03:21:36.523Z,96.90
2023-03-24T03:21:48.632Z,96.80
2023-03-24T03:22:00.601Z,96.70
2023-03-24T03:22:16.255Z,96.70
2023-03-24T03:22:30.767Z,96.60
2023-03-24T03:22:49.580Z,96.60